createdAt,value
2024-01-16T00:02:10.481Z,4.00
2024-01-16T00:04:41.903Z,4.30
2024-01-16T00:07:08.615Z,2.47
2024-01-16T00:09:35.660Z,2.53
2024-01-16T00:12:03.717Z,2.08
2024-01-16T00:14:30.289Z,2.53
2024-01-16T00:16:56.732Z,7.10
2024-01-16T00:19:23.256Z,5.43
2024-01-16T00:21:49.791Z,3.50
2024-01-16T00:24:16.267Z,3.08
2024-01-16T00:26:42.935Z,3.55
2024-01-16T00:29:13.432Z,4.07
2024-01-16T00:31:40.462Z,3.60
2024-01-16T00:34:07.119Z,6.30
2024-01-16T00:36:33.543Z,2.50
2024-01-16T00:38:59.967Z,2.17
2024-01-16T00:41:26.667Z,4.35
2024-01-16T00:43:53.224Z,1.35
2024-01-16T00:46:19.669Z,3.60
2024-01-16T00:48:46.241Z,1.42
2024-01-16T00:51:12.835Z,2.20
2024-01-16T00:53:43.042Z,3.95
2024-01-16T00:56:09.964Z,1.33
2024-01-16T00:58:36.682Z,4.80
2024-01-16T01:01:03.376Z,7.05
2024-01-16T01:03:29.846Z,3.90
2024-01-16T01:05:56.966Z,1.30
2024-01-16T01:08:23.522Z,1.45
2024-01-16T01:10:50.044Z,2.15
2024-01-16T01:13:16.650Z,2.25
2024-01-16T01:15:43.162Z,1.35
2024-01-16T01:18:09.845Z,1.90
2024-01-16T01:20:36.494Z,0.88
2024-01-16T01:23:03.021Z,1.42
2024-01-16T01:25:29.590Z,1.77
2024-01-16T01:27:56.028Z,0.90
2024-01-16T01:30:22.522Z,1.00
2024-01-16T01:32:49.224Z,2.53
2024-01-16T01:35:18.379Z,1.00
2024-01-16T01:37:44.914Z,1.95
2024-01-16T01:40:13.676Z,4.10
2024-01-16T01:42:42.107Z,2.40
2024-01-16T01:45:13.173Z,1.67
2024-01-16T01:47:40.896Z,0.63
2024-01-16T01:50:09.173Z,1.15
2024-01-16T01:52:37.812Z,0.50
2024-01-16T01:55:04.821Z,1.55
2024-01-16T01:57:31.400Z,1.92
2024-01-16T01:59:57.919Z,0.77
2024-01-16T02:02:24.607Z,1.40
2024-01-16T02:04:51.479Z,2.05
2024-01-16T02:07:18.923Z,4.10
2024-01-16T02:09:45.357Z,0.73
2024-01-16T02:12:12.113Z,2.67
2024-01-16T02:14:38.673Z,1.80
2024-01-16T02:17:05.253Z,1.42
2024-01-16T02:19:31.822Z,0.88
2024-01-16T02:22:02.015Z,2.90
2024-01-16T02:24:28.509Z,0.45
2024-01-16T02:26:55.035Z,0.52
2024-01-16T02:29:21.557Z,2.47
2024-01-16T02:31:48.376Z,1.60
2024-01-16T02:34:14.991Z,1.77
2024-01-16T02:36:41.533Z,1.10
2024-01-16T02:39:08.827Z,0.90
2024-01-16T02:41:35.434Z,1.98
2024-01-16T02:44:01.949Z,1.67
2024-01-16T02:46:29.068Z,1.13
2024-01-16T02:48:56.107Z,3.67
2024-01-16T02:51:22.618Z,2.20
2024-01-16T02:53:49.111Z,1.73
2024-01-16T02:56:15.754Z,1.23
2024-01-16T02:58:42.638Z,2.42
2024-01-16T03:01:09.149Z,4.30
2024-01-16T03:03:36.390Z,2.10
2024-01-16T03:06:03.213Z,2.20
2024-01-16T03:08:30.152Z,2.28
2024-01-16T03:10:56.709Z,1.38
2024-01-16T03:13:23.150Z,1.42
2024-01-16T03:15:49.590Z,1.95
2024-01-16T03:18:16.252Z,1.70
2024-01-16T03:20:43.723Z,4.55
2024-01-16T03:23:10.194Z,2.75
2024-01-16T03:25:39.786Z,1.48
2024-01-16T03:28:09.017Z,1.67
2024-01-16T03:30:36.176Z,4.22
2024-01-16T03:33:03.539Z,3.42
2024-01-16T03:35:30.186Z,2.90
2024-01-16T03:37:56.722Z,3.97
2024-01-16T03:40:23.163Z,1.33
2024-01-16T03:42:49.681Z,4.35
2024-01-16T03:45:17.914Z,2.05
2024-01-16T03:47:44.794Z,3.33
2024-01-16T03:50:11.540Z,2.92
2024-01-16T03:52:37.981Z,3.67
2024-01-16T03:55:04.914Z,3.28
2024-01-16T03:57:31.387Z,3.00
2024-01-16T03:59:57.819Z,2.88
2024-01-16T04:02:24.311Z,2.20
2024-01-16T04:04:50.850Z,2.15
2024-01-16T04:07:17.311Z,2.38
2024-01-16T04:09:44.210Z,3.83
2024-01-16T04:12:11.238Z,6.47
2024-01-16T04:14:37.736Z,3.67
2024-01-16T04:17:04.430Z,3.90
2024-01-16T04:19:34.741Z,2.85
2024-01-16T04:22:02.262Z,3.50
2024-01-16T04:24:28.999Z,4.88
2024-01-16T04:26:55.679Z,5.05
2024-01-16T04:29:22.173Z,3.45
2024-01-16T04:31:48.986Z,2.67
2024-01-16T04:34:15.568Z,5.50
2024-01-16T04:36:42.111Z,2.03
2024-01-16T04:39:09.781Z,4.30
2024-01-16T04:41:37.184Z,1.85
2024-01-16T04:44:03.756Z,2.20
2024-01-16T04:46:30.205Z,1.63
2024-01-16T04:48:56.764Z,3.85
2024-01-16T04:51:23.554Z,1.60
2024-01-16T04:53:50.093Z,2.13
2024-01-16T04:56:16.678Z,2.60
2024-01-16T04:58:45.296Z,3.65
2024-01-16T05:01:14.035Z,4.57
2024-01-16T05:03:40.568Z,4.40
2024-01-16T05:06:14.322Z,3.90
2024-01-16T05:08:40.804Z,2.47
2024-01-16T05:11:07.342Z,3.78
2024-01-16T05:13:33.958Z,4.68
2024-01-16T05:16:00.691Z,3.70
2024-01-16T05:18:27.564Z,5.70
2024-01-16T05:20:57.645Z,4.07
2024-01-16T05:23:25.621Z,5.32
2024-01-16T05:25:52.089Z,3.40
2024-01-16T05:28:18.537Z,3.95
2024-01-16T05:30:45.185Z,4.85
2024-01-16T05:33:12.158Z,5.55
2024-01-16T05:35:38.752Z,3.00
2024-01-16T05:38:05.343Z,3.08
2024-01-16T05:40:32.561Z,6.22
2024-01-16T05:42:59.465Z,4.63
2024-01-16T05:45:26.885Z,5.38
2024-01-16T05:47:53.525Z,5.50
2024-01-16T05:50:20.210Z,5.03
2024-01-16T05:52:47.426Z,6.72
2024-01-16T05:55:14.207Z,10.15
2024-01-16T05:57:40.961Z,4.85
2024-01-16T06:00:08.055Z,8.85
2024-01-16T06:02:34.673Z,5.55
2024-01-16T06:05:01.257Z,4.25
2024-01-16T06:07:28.118Z,5.68
2024-01-16T06:09:54.617Z,7.07
2024-01-16T06:12:21.501Z,8.98
2024-01-16T06:14:48.122Z,5.55
2024-01-16T06:17:14.634Z,6.65
2024-01-16T06:19:41.189Z,4.28
2024-01-16T06:22:07.835Z,4.93
2024-01-16T06:24:38.082Z,4.70
2024-01-16T06:27:07.958Z,4.88
2024-01-16T06:29:35.771Z,5.55
2024-01-16T06:32:02.603Z,4.80
2024-01-16T06:34:30.079Z,3.92
2024-01-16T06:36:56.744Z,4.45
2024-01-16T06:39:23.209Z,6.80
2024-01-16T06:41:49.838Z,6.60
2024-01-16T06:44:16.350Z,5.03
2024-01-16T06:46:42.873Z,11.70
2024-01-16T06:49:09.494Z,5.07
2024-01-16T06:51:36.143Z,6.05
2024-01-16T06:54:02.632Z,7.38
2024-01-16T06:56:29.169Z,7.72
2024-01-16T08:03:48.948Z,4.03
2024-01-16T11:21:01.324Z,4.32
2024-01-16T11:26:28.268Z,6.10
2024-01-16T11:28:59.872Z,5.68
2024-01-16T11:31:33.376Z,3.50
2024-01-16T11:34:00.900Z,4.90
2024-01-16T11:36:56.522Z,2.72
2024-01-16T11:39:28.025Z,2.80
2024-01-16T11:41:56.769Z,4.88
2024-01-16T11:44:44.662Z,3.10
2024-01-16T11:47:20.060Z,4.70
2024-01-16T11:49:52.442Z,2.83
2024-01-16T11:52:45.580Z,6.20
2024-01-16T11:55:33.812Z,6.38
2024-01-16T11:58:09.493Z,4.95
2024-01-16T12:00:36.704Z,6.30
2024-01-16T12:03:07.877Z,4.93
2024-01-16T12:05:35.826Z,7.05
2024-01-16T12:08:04.688Z,6.47
2024-01-16T12:10:31.168Z,10.30
2024-01-16T12:13:02.844Z,5.55
2024-01-16T12:15:32.686Z,5.97
2024-01-16T12:18:01.693Z,9.05
2024-01-16T12:20:31.119Z,5.00
2024-01-16T12:23:03.243Z,6.32
2024-01-16T12:26:00.357Z,5.07
2024-01-16T12:28:28.431Z,6.88
2024-01-16T12:30:59.406Z,5.25
2024-01-16T12:33:26.006Z,10.73
2024-01-16T12:36:03.949Z,4.50
2024-01-16T12:38:30.926Z,10.93
2024-01-16T12:40:58.244Z,6.75
2024-01-16T12:43:25.444Z,6.78
2024-01-16T12:45:58.473Z,7.88
2024-01-16T12:48:26.994Z,6.30
2024-01-16T12:51:05.120Z,4.50
2024-01-16T12:53:33.136Z,4.10
2024-01-16T12:56:01.041Z,6.38
2024-01-16T12:58:35.431Z,6.18
2024-01-16T13:01:38.420Z,6.10
2024-01-16T13:04:07.207Z,5.45
2024-01-16T13:06:35.126Z,4.57
2024-01-16T13:09:12.243Z,4.20
2024-01-16T13:11:49.550Z,5.38
2024-01-16T13:14:16.298Z,2.92
2024-01-16T13:16:42.786Z,10.80
2024-01-16T13:19:12.052Z,3.45
2024-01-16T13:21:38.721Z,4.57
2024-01-16T13:24:05.537Z,3.80
2024-01-16T13:26:33.487Z,5.55
2024-01-16T13:29:00.607Z,4.75
2024-01-16T13:31:27.129Z,7.20
2024-01-16T13:33:53.729Z,4.15
2024-01-16T13:36:39.862Z,6.90
2024-01-16T13:39:13.941Z,4.55
2024-01-16T13:41:40.995Z,3.60
2024-01-16T13:44:07.581Z,4.43
2024-01-16T13:46:49.246Z,2.33
2024-01-16T13:49:21.434Z,5.35
2024-01-16T13:51:48.004Z,7.38
2024-01-16T13:54:14.551Z,8.52
2024-01-16T13:56:58.217Z,5.00
2024-01-16T13:59:27.579Z,4.63
2024-01-16T14:01:54.066Z,5.82
2024-01-16T14:04:21.737Z,9.50
2024-01-16T14:07:03.200Z,2.97
2024-01-16T14:09:38.141Z,5.82
2024-01-16T14:12:05.154Z,5.15
2024-01-16T14:14:32.483Z,6.32
2024-01-16T14:17:01.686Z,3.35
2024-01-16T14:19:31.305Z,4.30
2024-01-16T14:21:58.212Z,6.20
2024-01-16T14:24:24.761Z,7.25
2024-01-16T14:26:51.838Z,4.60
2024-01-16T14:29:19.656Z,3.70
2024-01-16T14:31:50.051Z,6.00
2024-01-16T14:34:17.316Z,3.75
2024-01-16T14:36:44.081Z,7.22
2024-01-16T14:39:22.845Z,4.00
2024-01-16T14:41:49.506Z,5.93
2024-01-16T14:44:16.069Z,6.88
2024-01-16T14:46:47.818Z,6.72
2024-01-16T14:49:15.840Z,7.80
2024-01-16T14:51:42.815Z,4.82
2024-01-16T14:54:10.050Z,6.20
2024-01-16T14:56:36.826Z,3.88
2024-01-16T14:59:04.045Z,8.00
2024-01-16T15:01:30.554Z,3.60
2024-01-16T15:03:58.645Z,6.18
2024-01-16T15:06:27.814Z,4.63
2024-01-16T15:08:55.139Z,8.32
2024-01-16T15:11:22.171Z,5.47
2024-01-16T15:13:51.093Z,8.52
2024-01-16T15:16:19.272Z,8.02
2024-01-16T15:18:46.096Z,5.45
2024-01-16T15:21:12.758Z,5.57
2024-01-16T15:23:39.285Z,7.93
2024-01-16T15:26:07.574Z,12.65
2024-01-16T15:28:34.467Z,4.20
2024-01-16T15:31:07.886Z,9.15
2024-01-16T15:33:37.942Z,5.82
2024-01-16T15:36:05.342Z,5.00
2024-01-16T15:38:32.271Z,5.97
2024-01-16T15:40:59.612Z,6.28
2024-01-16T15:43:26.224Z,7.75
2024-01-16T15:45:52.798Z,4.57
2024-01-16T15:48:19.534Z,7.05
2024-01-16T15:50:46.138Z,5.22
2024-01-16T15:53:16.580Z,10.75
2024-01-16T15:58:11.616Z,11.35
2024-01-16T16:00:38.378Z,9.57
2024-01-16T16:03:06.275Z,12.00
2024-01-16T16:05:33.152Z,7.72
2024-01-16T16:08:01.971Z,13.68
2024-01-16T16:10:28.624Z,11.88
2024-01-16T16:12:55.285Z,12.18
2024-01-16T16:15:23.524Z,9.55
2024-01-16T16:17:52.177Z,8.68
2024-01-16T16:20:25.796Z,9.32
2024-01-16T16:22:53.501Z,9.23
2024-01-16T16:25:20.305Z,10.65
2024-01-16T16:27:48.196Z,11.57
2024-01-16T16:30:16.364Z,12.88
2024-01-16T16:32:43.112Z,11.25
2024-01-16T16:35:11.979Z,14.10
2024-01-16T16:37:38.500Z,14.40
2024-01-16T16:40:11.317Z,9.63
2024-01-16T16:42:38.059Z,9.55
2024-01-16T16:45:06.282Z,7.55
2024-01-16T16:47:32.939Z,6.13
2024-01-16T16:49:59.450Z,9.70
2024-01-16T16:52:25.914Z,10.38
2024-01-16T16:54:52.384Z,13.13
2024-01-16T16:57:18.891Z,11.35
2024-01-16T16:59:46.468Z,8.98
2024-01-16T17:02:15.523Z,7.97
2024-01-16T17:04:42.245Z,8.63
2024-01-16T17:07:11.474Z,6.50
2024-01-16T17:09:39.208Z,5.88
2024-01-16T17:12:07.470Z,11.35
2024-01-16T17:14:35.920Z,8.05
2024-01-16T17:17:04.493Z,6.00
2024-01-16T17:19:31.168Z,5.20
2024-01-16T17:21:57.750Z,7.63
2024-01-16T17:24:24.422Z,7.38
2024-01-16T17:26:51.882Z,6.13
2024-01-16T17:29:18.466Z,6.97
2024-01-16T17:31:45.142Z,7.45
2024-01-16T17:34:15.584Z,7.55
2024-01-16T17:36:44.891Z,5.70
2024-01-16T17:39:11.564Z,12.00
2024-01-16T17:41:38.864Z,8.60
2024-01-16T17:44:05.839Z,8.13
2024-01-16T17:46:32.343Z,9.45
2024-01-16T17:48:59.180Z,8.00
2024-01-16T17:51:26.596Z,13.15
2024-01-16T17:53:54.053Z,9.45
2024-01-16T17:56:22.531Z,7.82
2024-01-16T17:58:50.238Z,6.90
2024-01-16T18:01:16.895Z,15.32
2024-01-16T18:03:46.904Z,7.07
2024-01-16T18:06:17.272Z,6.38
2024-01-16T18:08:44.062Z,8.57
2024-01-16T18:11:14.258Z,10.15
2024-01-16T18:13:43.270Z,9.10
2024-01-16T18:16:10.667Z,9.38
2024-01-16T18:18:38.426Z,10.93
2024-01-16T18:21:08.493Z,11.70
2024-01-16T18:23:36.215Z,9.23
2024-01-16T18:26:05.613Z,6.90
2024-01-16T18:28:32.613Z,11.57
2024-01-16T18:30:59.868Z,9.40
2024-01-16T18:33:26.982Z,12.43
2024-01-16T18:35:58.359Z,11.30
2024-01-16T18:38:25.426Z,10.27
2024-01-16T18:40:53.366Z,10.43
2024-01-16T18:43:19.838Z,11.73
2024-01-16T18:45:48.475Z,8.32
2024-01-16T18:48:15.803Z,14.20
2024-01-16T18:50:43.087Z,9.70
2024-01-16T18:53:09.577Z,15.02
2024-01-16T18:55:37.596Z,10.13
2024-01-16T18:58:05.619Z,10.10
2024-01-16T19:00:32.267Z,11.30
2024-01-16T19:02:59.728Z,10.55
2024-01-16T19:05:26.532Z,10.80
2024-01-16T19:07:53.145Z,10.40
2024-01-16T19:10:19.679Z,13.70
2024-01-16T19:12:48.471Z,11.15
2024-01-16T19:15:19.477Z,13.05
2024-01-16T19:17:53.841Z,9.82
2024-01-16T19:20:23.631Z,8.00
2024-01-16T19:22:51.322Z,9.27
2024-01-16T19:25:18.004Z,12.95
2024-01-16T19:27:49.645Z,13.85
2024-01-16T19:30:20.632Z,9.10
2024-01-16T19:35:15.657Z,8.75
2024-01-16T19:37:42.462Z,9.68
2024-01-16T19:40:14.886Z,11.30
2024-01-16T19:42:41.847Z,9.70
2024-01-16T19:45:10.588Z,8.10
2024-01-16T19:47:42.479Z,9.80
2024-01-16T19:50:23.650Z,6.25
2024-01-16T19:52:52.570Z,9.45
2024-01-16T19:55:22.584Z,10.50
2024-01-16T19:57:49.698Z,10.73
2024-01-16T20:00:17.648Z,8.98
2024-01-16T20:02:44.938Z,9.80
2024-01-16T20:05:16.247Z,8.52
2024-01-16T20:07:43.654Z,11.70
2024-01-16T20:10:19.740Z,8.63
2024-01-16T20:12:47.773Z,9.35
2024-01-16T20:15:16.586Z,8.02
2024-01-16T20:18:00.486Z,8.00
2024-01-16T20:20:28.057Z,8.23
2024-01-16T20:22:56.467Z,9.13
2024-01-16T20:25:25.226Z,6.80
2024-01-16T20:27:52.656Z,7.15
2024-01-16T20:30:19.425Z,6.20
2024-01-16T20:32:47.448Z,8.45
2024-01-16T20:35:15.006Z,8.98
2024-01-16T20:37:42.160Z,6.78
2024-01-16T20:40:12.645Z,9.32
2024-01-16T20:42:39.373Z,7.32
2024-01-16T20:45:12.749Z,6.47
2024-01-16T20:47:40.783Z,8.32
2024-01-16T20:50:10.254Z,4.93
2024-01-16T20:52:36.837Z,5.60
2024-01-16T20:55:06.591Z,7.07
2024-01-16T20:57:36.419Z,5.45
2024-01-16T21:00:06.055Z,8.85
2024-01-16T21:02:33.223Z,6.30
2024-01-16T21:05:00.039Z,6.07
2024-01-16T21:07:26.753Z,8.13
2024-01-16T21:09:53.312Z,6.93
2024-01-16T21:12:19.816Z,4.88
2024-01-16T21:14:46.424Z,7.53
2024-01-16T21:17:13.172Z,8.20
2024-01-16T21:19:39.791Z,5.45
2024-01-16T21:22:07.468Z,6.97
2024-01-16T21:24:34.884Z,8.07
2024-01-16T21:27:02.238Z,5.38
2024-01-16T21:29:28.713Z,3.97
2024-01-16T21:31:55.204Z,4.05
2024-01-16T21:34:24.955Z,5.43
2024-01-16T21:36:55.380Z,7.78
2024-01-16T21:39:22.501Z,6.18
2024-01-16T21:41:49.090Z,5.05
2024-01-16T21:44:17.035Z,4.45
2024-01-16T21:46:44.024Z,9.63
2024-01-16T21:49:11.550Z,7.15
2024-01-16T21:51:38.496Z,6.60
2024-01-16T21:54:06.147Z,5.53
2024-01-16T21:56:33.179Z,8.63
2024-01-16T21:59:00.319Z,7.35
2024-01-16T22:01:27.221Z,5.35
2024-01-16T22:03:53.712Z,8.45
2024-01-16T22:06:21.573Z,6.53
2024-01-16T22:08:52.495Z,7.00
2024-01-16T22:13:46.163Z,8.25
2024-01-16T22:16:13.112Z,8.45
2024-01-16T22:18:40.757Z,7.00
2024-01-16T22:21:08.141Z,7.95
2024-01-16T22:23:35.112Z,5.75
2024-01-16T22:26:01.822Z,5.22
2024-01-16T22:28:28.943Z,6.00
2024-01-16T22:30:55.428Z,7.90
2024-01-16T22:33:22.334Z,7.05
2024-01-16T22:35:49.985Z,6.80
2024-01-16T22:38:17.682Z,8.68
2024-01-16T22:40:44.289Z,7.15
2024-01-16T22:43:10.708Z,7.25
2024-01-16T22:45:37.116Z,8.60
2024-01-16T22:48:06.458Z,6.18
2024-01-16T22:50:33.134Z,5.97
2024-01-16T22:53:00.349Z,7.68
2024-01-16T22:55:26.922Z,5.80
2024-01-16T22:57:53.470Z,7.50
2024-01-16T23:00:22.963Z,7.85
2024-01-16T23:02:49.806Z,6.32
2024-01-16T23:05:17.680Z,6.90
2024-01-16T23:07:47.075Z,8.82
2024-01-16T23:10:17.447Z,7.47
2024-01-16T23:12:44.096Z,6.28
2024-01-16T23:15:11.587Z,11.50
2024-01-16T23:17:39.588Z,8.82
2024-01-16T23:20:09.221Z,7.65
2024-01-16T23:22:36.016Z,6.28
2024-01-16T23:25:02.533Z,7.35
2024-01-16T23:27:31.412Z,8.05
2024-01-16T23:29:57.956Z,8.43
2024-01-16T23:32:28.594Z,9.27
2024-01-16T23:34:55.063Z,12.27
2024-01-16T23:37:25.071Z,8.02
2024-01-16T23:39:54.924Z,8.13
2024-01-16T23:42:21.975Z,10.13
2024-01-16T23:44:48.527Z,11.35
2024-01-16T23:47:15.423Z,7.63
2024-01-16T23:49:42.044Z,9.45
2024-01-16T23:52:09.670Z,12.82
2024-01-16T23:54:37.781Z,9.70
2024-01-16T23:57:05.189Z,9.00
2024-01-16T23:59:33.176Z,11.88
